KORB

Orr Regional Airport

Orr, Minnesota, USA
METAR KORB 160213Z AUTO 18011G21KT 10SM CLR 04/M10 A2977 RMK AO2
Observed Flight Rules
Dec-16 @ 02:13 UTC (16 minutes ago) Visual Flight Rules
Wind Visibility Clouds
180° at 11 knots
 Gusting to 21 knots
10 miles
  • Clear skies
Temperatures Readings
Current 4°C / 39°F
Dewpoint -10°C / 14°F
Humidity 36%
Altimeter 29.77" Hg
Pressure 1008 hPa
Elevation 397
METAR KORB 160213Z AUTO 18011G21KT 10SM CLR 04/M10 A2977 RMK AO2
Observed Flight Rules
Dec-16 @ 02:13 UTC
(16 minutes ago)
VFR
Wind Visibility
180° at 11 knots
 Gusting to 21 knots
10 miles
Clouds
  • Clear skies
Temperature Dewpoint
4°C / 39°F -10°C / 14°F
Humidity Altimeter Pressure
36% 29.77" Hg 1008 hPa